createdAt,value
2017-04-10T17:51:59.040Z,12.15
2017-04-10T17:53:00.479Z,12.23
2017-04-10T17:54:01.927Z,12.19
2017-04-10T17:55:03.355Z,12.33
2017-04-10T17:56:04.780Z,12.30
2017-04-10T17:57:06.209Z,12.37
2017-04-10T17:58:07.642Z,12.34
2017-04-10T17:59:09.103Z,12.33
2017-04-10T18:00:10.528Z,12.24
2017-04-10T18:01:11.959Z,12.20
2017-04-10T18:02:13.410Z,12.21
2017-04-10T18:03:14.833Z,12.23
2017-04-10T18:04:16.260Z,12.15
2017-04-10T18:05:17.695Z,12.26
2017-04-10T18:06:19.117Z,12.12
2017-04-10T18:07:20.559Z,12.12
2017-04-10T18:08:21.991Z,12.09
2017-04-10T18:09:23.425Z,12.11
2017-04-10T18:10:24.857Z,12.04
2017-04-10T18:11:26.286Z,12.09
2017-04-10T18:12:27.722Z,12.15
2017-04-10T18:13:29.156Z,12.20
2017-04-10T18:14:30.578Z,12.13
2017-04-10T18:15:32.012Z,12.08
2017-04-10T18:16:33.453Z,12.09
2017-04-10T18:17:34.876Z,12.11
2017-04-10T18:18:36.330Z,12.06
2017-04-10T18:19:37.755Z,11.97
2017-04-10T18:20:39.187Z,12.04
2017-04-10T18:21:40.615Z,11.94
2017-04-10T18:22:42.059Z,11.90
2017-04-10T18:23:43.489Z,11.97
2017-04-10T18:24:44.911Z,11.94
2017-04-10T18:25:46.345Z,11.85
2017-04-10T18:26:47.776Z,11.82
2017-04-10T18:27:49.219Z,11.93
2017-04-10T18:28:50.651Z,11.75
2017-04-10T18:29:52.079Z,11.72
2017-04-10T18:30:53.524Z,11.61
2017-04-10T18:31:54.948Z,11.78
2017-04-10T18:32:56.379Z,11.64
2017-04-10T18:33:57.799Z,11.80
2017-04-10T18:34:59.232Z,11.78
2017-04-10T18:36:00.760Z,11.71
2017-04-10T18:37:02.191Z,11.62
2017-04-10T18:38:03.617Z,11.64
2017-04-10T18:39:05.043Z,11.47
2017-04-10T18:40:07.263Z,11.46
2017-04-10T18:41:08.713Z,11.59
2017-04-10T18:42:10.144Z,11.62
2017-04-10T18:43:11.577Z,11.70
2017-04-10T18:44:13.008Z,11.59
2017-04-10T18:45:14.439Z,11.67
2017-04-10T18:46:15.864Z,11.70
2017-04-10T18:47:17.289Z,11.62
2017-04-10T18:48:18.722Z,11.52
2017-04-10T18:49:20.149Z,11.52
2017-04-10T18:50:21.571Z,11.57
2017-04-10T18:51:22.997Z,11.53
2017-04-10T18:52:24.544Z,11.43
2017-04-10T18:53:25.969Z,11.38
2017-04-10T18:54:27.391Z,11.41
2017-04-10T18:55:28.823Z,11.32
2017-04-10T18:56:30.242Z,11.43
2017-04-10T18:57:31.672Z,11.34
2017-04-10T18:58:33.106Z,11.25
2017-04-10T18:59:34.537Z,11.35
2017-04-10T19:00:35.966Z,11.35
2017-04-10T19:01:37.405Z,11.35
2017-04-10T19:02:38.830Z,11.31
2017-04-10T19:03:40.265Z,11.28
2017-04-10T19:04:41.686Z,11.13
2017-04-10T19:05:43.114Z,11.17
2017-04-10T19:06:44.568Z,11.11
2017-04-10T19:07:45.972Z,11.11
2017-04-10T19:08:47.405Z,11.06
2017-04-10T19:09:48.831Z,11.14
2017-04-10T19:10:50.255Z,11.14
2017-04-10T19:11:51.686Z,11.06
2017-04-10T19:12:53.111Z,11.07
2017-04-10T19:13:54.537Z,11.14
2017-04-10T19:14:55.964Z,11.09
2017-04-10T19:15:57.388Z,11.06
2017-04-10T19:16:58.826Z,11.09
2017-04-10T19:18:00.264Z,11.06
2017-04-10T19:19:01.696Z,11.02
2017-04-10T19:20:03.135Z,10.92
2017-04-10T19:21:04.563Z,10.96
2017-04-10T19:22:05.996Z,10.99
2017-04-10T19:23:07.420Z,11.10
2017-04-10T19:24:08.853Z,11.01
2017-04-10T19:25:10.292Z,10.98
2017-04-10T19:26:11.724Z,10.91
2017-04-10T19:27:13.154Z,10.86
2017-04-10T19:28:14.570Z,10.73
2017-04-10T19:29:16.004Z,10.73
2017-04-10T19:30:17.428Z,10.94
2017-04-10T19:31:18.863Z,10.80
2017-04-10T19:32:20.288Z,10.81
2017-04-10T19:33:21.721Z,10.78
2017-04-10T19:34:23.145Z,10.73
2017-04-10T19:35:24.570Z,10.71
2017-04-10T19:36:25.992Z,10.68
2017-04-10T19:37:27.420Z,10.70
2017-04-10T19:38:28.844Z,10.62
2017-04-10T19:39:30.328Z,10.68
2017-04-10T19:40:31.761Z,10.65
2017-04-10T19:41:33.189Z,10.66
2017-04-10T19:42:34.616Z,10.56
2017-04-10T19:43:36.057Z,10.70
2017-04-10T19:44:37.491Z,10.55
2017-04-10T19:45:38.938Z,10.62
2017-04-10T19:46:40.432Z,10.55
2017-04-10T19:47:41.861Z,10.53
2017-04-10T19:48:43.297Z,10.51
2017-04-10T19:49:44.749Z,10.62
2017-04-10T19:50:46.193Z,10.66
2017-04-10T19:51:47.630Z,10.68
2017-04-10T19:52:49.057Z,10.46
2017-04-10T19:53:50.483Z,10.46
2017-04-10T19:54:51.909Z,10.58
2017-04-10T19:55:53.337Z,10.59
2017-04-10T19:56:54.774Z,10.55
2017-04-10T19:57:56.198Z,10.66
2017-04-10T19:58:57.621Z,10.66
2017-04-10T19:59:59.059Z,10.55
2017-04-10T20:01:00.486Z,10.66
2017-04-10T20:02:01.917Z,10.58
2017-04-10T20:03:03.347Z,10.51
2017-04-10T20:04:04.782Z,10.53
2017-04-10T20:05:06.207Z,10.53
2017-04-10T20:06:07.635Z,10.55
2017-04-10T20:07:12.969Z,10.32
2017-04-10T20:08:14.432Z,10.40
2017-04-10T20:09:15.863Z,10.55
2017-04-10T20:10:18.081Z,10.43
2017-04-10T20:11:20.321Z,10.56
2017-04-10T20:12:22.456Z,10.51
2017-04-10T20:13:24.660Z,10.46
2017-04-10T20:14:26.703Z,10.36
2017-04-10T20:15:28.705Z,10.40
2017-04-10T20:16:31.108Z,10.37
2017-04-10T20:17:32.552Z,10.39
2017-04-10T20:18:33.982Z,10.28
2017-04-10T20:19:36.175Z,10.22
2017-04-10T20:20:37.595Z,10.22
2017-04-10T20:21:39.703Z,10.24
2017-04-10T20:22:41.806Z,10.32
2017-04-10T20:23:43.917Z,10.25
2017-04-10T20:24:45.954Z,10.26
2017-04-10T20:25:48.315Z,10.21
2017-04-10T20:26:50.455Z,10.10
2017-04-10T20:27:52.664Z,10.09
2017-04-10T20:28:54.105Z,10.12
2017-04-10T20:29:56.180Z,10.25
2017-04-10T20:30:58.583Z,10.22
2017-04-10T20:32:00.012Z,10.19
2017-04-10T20:33:01.451Z,10.17
2017-04-10T20:34:02.866Z,10.09
2017-04-10T20:35:04.293Z,10.10
2017-04-10T20:36:05.721Z,10.14
2017-04-10T20:37:07.153Z,10.06
2017-04-10T20:38:08.579Z,10.01
2017-04-10T20:39:10.009Z,10.00
2017-04-10T20:40:11.441Z,10.12
2017-04-10T20:41:12.869Z,10.09
2017-04-10T20:42:14.294Z,10.06
2017-04-10T20:43:15.731Z,9.99
2017-04-10T20:44:17.156Z,10.00
2017-04-10T20:45:18.582Z,9.99
2017-04-10T20:46:20.013Z,10.03
2017-04-10T20:47:21.430Z,9.93
2017-04-10T20:48:22.852Z,9.82
2017-04-10T20:49:24.277Z,9.75
2017-04-10T20:50:25.704Z,9.83
2017-04-10T20:51:27.137Z,9.89
2017-04-10T20:52:28.563Z,9.91
2017-04-10T20:53:29.990Z,9.93
2017-04-10T20:54:31.408Z,9.81
2017-04-10T20:55:32.841Z,9.85
2017-04-10T20:56:34.269Z,9.79
2017-04-10T20:57:35.693Z,9.73
2017-04-10T20:58:37.125Z,9.88
2017-04-10T20:59:38.548Z,9.75
2017-04-10T21:00:39.973Z,9.76
2017-04-10T21:01:41.403Z,9.79
2017-04-10T21:02:42.836Z,9.83
2017-04-10T21:03:44.331Z,9.79
2017-04-10T21:04:45.759Z,9.75
2017-04-10T21:05:47.184Z,9.89
2017-04-10T21:06:48.684Z,9.83
2017-04-10T21:07:50.121Z,9.76
2017-04-10T21:08:51.536Z,9.76
2017-04-10T21:09:52.969Z,9.78
2017-04-10T21:10:54.397Z,9.71
2017-04-10T21:11:55.820Z,9.76
2017-04-10T21:12:57.253Z,9.79
2017-04-10T21:13:58.759Z,9.70
2017-04-10T21:15:00.192Z,9.64
2017-04-10T21:16:01.608Z,9.83
2017-04-10T21:17:03.031Z,9.73
2017-04-10T21:18:04.465Z,9.78
2017-04-10T21:19:05.891Z,9.78
2017-04-10T21:20:07.324Z,9.83
2017-04-10T21:21:08.745Z,9.78
2017-04-10T21:22:10.171Z,9.75
2017-04-10T21:23:11.595Z,9.96
2017-04-10T21:24:13.025Z,9.76
2017-04-10T21:25:14.453Z,9.76
2017-04-10T21:26:15.873Z,9.89
2017-04-10T21:27:17.304Z,9.81
2017-04-10T21:28:18.725Z,9.85
2017-04-10T21:29:20.147Z,9.83
2017-04-10T21:30:21.582Z,9.71
2017-04-10T21:31:23.007Z,9.86
2017-04-10T21:32:24.452Z,9.86
2017-04-10T21:33:25.894Z,9.71
2017-04-10T21:34:27.314Z,9.73
2017-04-10T21:35:28.741Z,9.73
2017-04-10T21:36:30.162Z,9.56
2017-04-10T21:37:31.582Z,9.53
2017-04-10T21:38:33.001Z,9.61
2017-04-10T21:39:34.443Z,9.40
2017-04-10T21:40:35.869Z,9.40
2017-04-10T21:41:37.296Z,9.25
2017-04-10T21:42:38.716Z,9.23
2017-04-10T21:43:40.138Z,9.20
2017-04-10T21:44:41.565Z,9.23
2017-04-10T21:45:42.988Z,9.20
2017-04-10T21:46:44.417Z,9.23
2017-04-10T21:47:45.843Z,9.21
2017-04-10T21:48:47.268Z,9.24
2017-04-10T21:49:48.700Z,9.21
2017-04-10T21:50:50.122Z,9.12
2017-04-10T21:51:51.548Z,9.12
2017-04-10T21:52:52.969Z,9.06
2017-04-10T21:53:54.392Z,9.16
2017-04-10T21:54:56.655Z,9.06
2017-04-10T21:55:58.077Z,9.02
2017-04-10T21:56:59.501Z,9.04
2017-04-10T21:58:00.940Z,8.96
2017-04-10T21:59:02.358Z,8.97
2017-04-10T22:00:03.780Z,8.91
2017-04-10T22:01:05.726Z,9.05
2017-04-10T22:02:07.139Z,9.01
2017-04-10T22:03:08.574Z,8.99
2017-04-10T22:04:09.993Z,9.09
2017-04-10T22:05:11.420Z,8.90
2017-04-10T22:06:12.838Z,8.78
2017-04-10T22:07:14.271Z,8.75
2017-04-10T22:08:15.690Z,8.75
2017-04-10T22:09:17.116Z,8.81
2017-04-10T22:10:18.539Z,8.79
2017-04-10T22:11:19.973Z,8.81
2017-04-10T22:12:21.398Z,8.71
2017-04-10T22:13:22.823Z,8.76
2017-04-10T22:14:24.242Z,8.71
2017-04-10T22:15:25.662Z,8.65
2017-04-10T22:16:27.094Z,8.78
2017-04-10T22:17:28.515Z,8.72
2017-04-10T22:18:29.937Z,8.69
2017-04-10T22:19:31.362Z,8.51
2017-04-10T22:20:33.481Z,8.47
2017-04-10T22:21:34.916Z,8.60
2017-04-10T22:22:36.348Z,8.66
2017-04-10T22:23:37.777Z,8.65
2017-04-10T22:24:39.205Z,8.66
2017-04-10T22:25:40.635Z,8.62
2017-04-10T22:26:42.059Z,8.51
2017-04-10T22:27:43.484Z,8.50
2017-04-10T22:28:44.906Z,8.35
2017-04-10T22:29:46.331Z,8.26
2017-04-10T22:30:47.759Z,8.33
2017-04-10T22:31:49.182Z,8.57
2017-04-10T22:32:50.602Z,8.50
2017-04-10T22:33:52.043Z,8.45
2017-04-10T22:34:53.462Z,8.42
2017-04-10T22:35:54.888Z,8.18
2017-04-10T22:36:56.311Z,8.26
2017-04-10T22:37:57.737Z,8.18
2017-04-10T22:38:59.161Z,8.37
2017-04-10T22:40:00.578Z,8.39
2017-04-10T22:41:02.002Z,8.17
2017-04-10T22:42:03.431Z,8.07
2017-04-10T22:43:04.859Z,8.07
2017-04-10T22:44:06.281Z,8.14
2017-04-10T22:45:07.700Z,8.15
2017-04-10T22:46:09.134Z,8.29
2017-04-10T22:47:10.565Z,8.18
2017-04-10T22:48:11.980Z,8.08
2017-04-10T22:49:13.417Z,8.14
2017-04-10T22:50:14.849Z,8.17
2017-04-10T22:51:16.260Z,8.17
2017-04-10T22:52:17.688Z,8.04
2017-04-10T22:53:19.108Z,8.10
2017-04-10T22:54:20.526Z,8.14
2017-04-10T22:55:21.946Z,8.25
2017-04-10T22:56:23.370Z,8.26
2017-04-10T22:57:24.794Z,8.29
2017-04-10T22:58:26.221Z,8.36
2017-04-10T22:59:27.647Z,8.51
2017-04-10T23:00:29.068Z,8.30
2017-04-10T23:01:30.500Z,8.32
2017-04-10T23:02:31.926Z,8.55
2017-04-10T23:03:33.367Z,8.50
2017-04-10T23:04:34.783Z,8.50
2017-04-10T23:05:36.199Z,8.53
2017-04-10T23:06:37.622Z,8.45
2017-04-10T23:07:39.053Z,8.47
2017-04-10T23:08:40.480Z,8.42
2017-04-10T23:09:41.905Z,8.54
2017-04-10T23:10:43.332Z,8.69
2017-04-10T23:11:44.761Z,8.68
2017-04-10T23:12:46.185Z,8.71
2017-04-10T23:13:47.609Z,8.72
2017-04-10T23:14:49.035Z,8.78
2017-04-10T23:15:50.461Z,8.66
2017-04-10T23:16:51.893Z,8.71
2017-04-10T23:17:53.326Z,8.69
2017-04-10T23:18:54.747Z,8.66
2017-04-10T23:19:56.172Z,8.66
2017-04-10T23:20:57.585Z,8.60
2017-04-10T23:21:59.009Z,8.71
2017-04-10T23:23:00.441Z,8.72
2017-04-10T23:24:01.858Z,8.51
2017-04-10T23:25:03.285Z,8.62
2017-04-10T23:26:04.706Z,8.47
2017-04-10T23:27:06.134Z,8.62
2017-04-10T23:28:07.550Z,8.65
2017-04-10T23:29:08.973Z,8.53
2017-04-10T23:30:10.393Z,8.69
2017-04-10T23:31:11.810Z,8.54
2017-04-10T23:32:13.236Z,8.53
2017-04-10T23:33:14.660Z,8.48
2017-04-10T23:34:16.099Z,8.53
2017-04-10T23:35:17.517Z,8.63
2017-04-10T23:36:18.940Z,8.68
2017-04-10T23:37:20.367Z,8.71
2017-04-10T23:38:21.794Z,8.66
2017-04-10T23:39:23.220Z,8.50
2017-04-10T23:40:24.643Z,8.47
2017-04-10T23:41:26.059Z,8.22
2017-04-10T23:42:27.475Z,8.28
2017-04-10T23:43:28.912Z,8.17
2017-04-10T23:44:30.329Z,8.30
2017-04-10T23:45:31.750Z,8.22
2017-04-10T23:46:33.169Z,8.18
2017-04-10T23:47:34.589Z,8.26
2017-04-10T23:48:36.017Z,8.02
2017-04-10T23:49:37.438Z,8.14
2017-04-10T23:50:38.856Z,7.97
2017-04-10T23:51:40.293Z,8.02
2017-04-10T23:52:41.716Z,8.04
2017-04-10T23:53:43.146Z,7.99
2017-04-10T23:54:44.571Z,7.97
2017-04-10T23:55:46.574Z,7.94
2017-04-10T23:56:48.000Z,7.99
2017-04-10T23:57:49.422Z,7.96
2017-04-10T23:58:50.843Z,7.93
2017-04-10T23:59:52.264Z,7.93
